sensor_id;sensor_type;location;lat;lon;timestamp;pressure;altitude;pressure_sealevel;temperature;humidity
59859;BME280;45734;53.648;9.566;2023-04-03T00:04:36;99597.59;;;-145.06;100.00
59859;BME280;45734;53.648;9.566;2023-04-03T00:09:36;99585.31;;;-145.06;100.00
59859;BME280;45734;53.648;9.566;2023-04-03T00:14:36;99575.06;;;-145.06;100.00
59859;BME280;45734;53.648;9.566;2023-04-03T00:19:37;99577.13;;;-145.06;100.00
59859;BME280;45734;53.648;9.566;2023-04-03T00:24:37;99661.09;;;-145.06;100.00
59859;BME280;45734;53.648;9.566;2023-04-03T00:29:37;99603.75;;;-145.06;100.00
59859;BME280;45734;53.648;9.566;2023-04-03T00:34:38;99601.69;;;-145.06;100.00
59859;BME280;45734;53.648;9.566;2023-04-03T00:39:38;99575.06;;;-145.06;100.00
59859;BME280;45734;53.648;9.566;2023-04-03T00:49:39;99562.78;;;-145.06;100.00
59859;BME280;45734;53.648;9.566;2023-04-03T00:54:41;99595.56;;;-145.06;100.00
59859;BME280;45734;53.648;9.566;2023-04-03T00:59:45;99589.41;;;-145.06;100.00
59859;BME280;45734;53.648;9.566;2023-04-03T01:04:46;99630.38;;;-145.06;100.00
59859;BME280;45734;53.648;9.566;2023-04-03T01:09:48;99599.66;;;-145.06;100.00
59859;BME280;45734;53.648;9.566;2023-04-03T01:14:56;99620.13;;;-145.06;100.00
59859;BME280;45734;53.648;9.566;2023-04-03T01:25:32;99573.00;;;-145.06;100.00
59859;BME280;45734;53.648;9.566;2023-04-03T01:30:39;99603.75;;;-145.06;100.00
59859;BME280;45734;53.648;9.566;2023-04-03T01:35:42;99599.66;;;-145.06;100.00
59859;BME280;45734;53.648;9.566;2023-04-03T01:40:42;99474.69;;;-145.06;100.00
59859;BME280;45734;53.648;9.566;2023-04-03T01:45:43;99632.41;;;-145.06;100.00
59859;BME280;45734;53.648;9.566;2023-04-03T01:50:43;99509.50;;;-145.06;100.00
59859;BME280;45734;53.648;9.566;2023-04-03T01:55:44;99583.25;;;-145.06;100.00
59859;BME280;45734;53.648;9.566;2023-04-03T02:00:44;99679.53;;;-145.06;100.00
59859;BME280;45734;53.648;9.566;2023-04-03T02:05:45;99671.34;;;-145.06;100.00
59859;BME280;45734;53.648;9.566;2023-04-03T02:10:49;99667.25;;;-145.06;100.00
59859;BME280;45734;53.648;9.566;2023-04-03T02:15:50;99564.81;;;-145.06;100.00
59859;BME280;45734;53.648;9.566;2023-04-03T02:20:50;99616.03;;;-145.06;100.00
59859;BME280;45734;53.648;9.566;2023-04-03T02:25:50;99589.41;;;-145.06;100.00
59859;BME280;45734;53.648;9.566;2023-04-03T02:30:51;99575.06;;;-145.06;100.00
59859;BME280;45734;53.648;9.566;2023-04-03T02:35:55;99597.59;;;-145.06;100.00
59859;BME280;45734;53.648;9.566;2023-04-03T02:41:00;99568.91;;;-145.06;100.00
59859;BME280;45734;53.648;9.566;2023-04-03T02:46:01;99618.09;;;-145.06;100.00
59859;BME280;45734;53.648;9.566;2023-04-03T02:51:02;99577.13;;;-145.06;100.00
59859;BME280;45734;53.648;9.566;2023-04-03T02:56:02;99519.75;;;-145.06;100.00
59859;BME280;45734;53.648;9.566;2023-04-03T03:01:02;99550.47;;;-145.06;100.00
59859;BME280;45734;53.648;9.566;2023-04-03T03:06:11;99568.91;;;-145.06;100.00
59859;BME280;45734;53.648;9.566;2023-04-03T03:11:11;99573.00;;;-145.06;100.00
59859;BME280;45734;53.648;9.566;2023-04-03T03:16:12;99554.59;;;-145.06;100.00
59859;BME280;45734;53.648;9.566;2023-04-03T03:21:12;99603.75;;;-145.06;100.00
59859;BME280;45734;53.648;9.566;2023-04-03T03:26:13;99599.66;;;-145.06;100.00
59859;BME280;45734;53.648;9.566;2023-04-03T03:31:13;99613.97;;;-145.06;100.00
59859;BME280;45734;53.648;9.566;2023-04-03T03:36:13;99527.94;;;-145.06;100.00
59859;BME280;45734;53.648;9.566;2023-04-03T03:41:14;99607.84;;;-145.06;100.00
59859;BME280;45734;53.648;9.566;2023-04-03T03:46:14;99470.59;;;-145.06;100.00
59859;BME280;45734;53.648;9.566;2023-04-03T03:51:14;99683.63;;;-145.06;100.00
59859;BME280;45734;53.648;9.566;2023-04-03T03:56:15;99675.44;;;-145.06;100.00
59859;BME280;45734;53.648;9.566;2023-04-03T04:01:15;99575.06;;;-145.06;100.00
59859;BME280;45734;53.648;9.566;2023-04-03T04:06:16;99591.44;;;-145.06;100.00
59859;BME280;45734;53.648;9.566;2023-04-03T04:11:17;99601.69;;;-145.06;100.00
59859;BME280;45734;53.648;9.566;2023-04-03T04:16:17;99636.50;;;-145.06;100.00
59859;BME280;45734;53.648;9.566;2023-04-03T04:21:18;99609.88;;;-145.06;100.00
59859;BME280;45734;53.648;9.566;2023-04-03T04:26:18;99554.59;;;-145.06;100.00
59859;BME280;45734;53.648;9.566;2023-04-03T04:31:19;99532.03;;;-145.06;100.00
59859;BME280;45734;53.648;9.566;2023-04-03T04:36:19;99577.13;;;-145.06;100.00
59859;BME280;45734;53.648;9.566;2023-04-03T04:41:20;99568.91;;;-145.06;100.00
59859;BME280;45734;53.648;9.566;2023-04-03T04:46:24;99343.59;;;-145.06;100.00
59859;BME280;45734;53.648;9.566;2023-04-03T04:51:24;99189.97;;;-145.06;100.00
59859;BME280;45734;53.648;9.566;2023-04-03T04:56:25;97334.75;;;-145.06;100.00
59859;BME280;45734;53.648;9.566;2023-04-03T05:01:26;96964.22;;;-145.06;100.00
59859;BME280;45734;53.648;9.566;2023-04-03T05:06:26;96800.47;;;-145.06;100.00
59859;BME280;45734;53.648;9.566;2023-04-03T05:11:27;96663.31;;;-145.06;100.00
59859;BME280;45734;53.648;9.566;2023-04-03T05:16:27;96458.63;;;-145.06;100.00
59859;BME280;45734;53.648;9.566;2023-04-03T05:21:28;96313.31;;;-145.06;100.00
59859;BME280;45734;53.648;9.566;2023-04-03T05:26:32;96188.47;;;-145.06;100.00
59859;BME280;45734;53.648;9.566;2023-04-03T05:31:32;97940.78;;;-145.06;100.00
59859;BME280;45734;53.648;9.566;2023-04-03T05:36:32;98757.84;;;-145.06;100.00
59859;BME280;45734;53.648;9.566;2023-04-03T05:41:33;97514.91;;;-145.06;100.00
59859;BME280;45734;53.648;9.566;2023-04-03T05:46:33;98417.91;;;-145.06;92.39
59859;BME280;45734;53.648;9.566;2023-04-03T05:51:35;96241.66;;;-145.06;85.01
59859;BME280;45734;53.648;9.566;2023-04-03T05:56:36;97267.19;;;-145.06;72.11
59859;BME280;45734;53.648;9.566;2023-04-03T06:01:36;96217.13;;;-145.06;68.64
59859;BME280;45734;53.648;9.566;2023-04-03T06:11:47;95470.13;;;-145.06;64.70
59859;BME280;45734;53.648;9.566;2023-04-03T06:16:47;95347.38;;;-145.06;67.28
59859;BME280;45734;53.648;9.566;2023-04-03T06:21:48;95277.78;;;-145.06;64.50
59859;BME280;45734;53.648;9.566;2023-04-03T06:26:48;95371.91;;;-145.06;62.92
59859;BME280;45734;53.648;9.566;2023-04-03T06:31:51;95150.94;;;-145.06;59.31
59859;BME280;45734;53.648;9.566;2023-04-03T06:36:52;95089.56;;;-145.06;51.08
59859;BME280;45734;53.648;9.566;2023-04-03T06:41:52;95144.78;;;-145.06;50.94
59859;BME280;45734;53.648;9.566;2023-04-03T06:46:53;95167.31;;;-145.06;49.66
59859;BME280;45734;53.648;9.566;2023-04-03T06:51:54;95150.94;;;-145.06;49.64
59859;BME280;45734;53.648;9.566;2023-04-03T06:56:56;94981.09;;;-145.06;49.99
59859;BME280;45734;53.648;9.566;2023-04-03T07:01:56;95173.44;;;-145.06;49.19
59859;BME280;45734;53.648;9.566;2023-04-03T07:06:58;95099.78;;;-145.06;51.08
59859;BME280;45734;53.648;9.566;2023-04-03T07:11:59;95001.56;;;-145.06;50.36
59859;BME280;45734;53.648;9.566;2023-04-03T07:16:59;95048.63;;;-145.06;47.62
59859;BME280;45734;53.648;9.566;2023-04-03T07:22:00;94938.13;;;-145.06;46.32
59859;BME280;45734;53.648;9.566;2023-04-03T07:27:00;94938.13;;;-145.06;47.02
59859;BME280;45734;53.648;9.566;2023-04-03T07:32:02;94987.25;;;-145.06;47.99
59859;BME280;45734;53.648;9.566;2023-04-03T07:37:03;94985.19;;;-145.06;46.27
59859;BME280;45734;53.648;9.566;2023-04-03T07:42:03;94993.38;;;-145.06;48.01
59859;BME280;45734;53.648;9.566;2023-04-03T07:47:03;94999.53;;;-145.06;45.24
59859;BME280;45734;53.648;9.566;2023-04-03T07:52:03;95034.31;;;-145.06;46.38
59859;BME280;45734;53.648;9.566;2023-04-03T07:57:04;95114.09;;;-145.06;46.72
59859;BME280;45734;53.648;9.566;2023-04-03T08:02:05;95105.91;;;-145.06;46.45
59859;BME280;45734;53.648;9.566;2023-04-03T08:07:05;95150.94;;;-145.06;46.66
59859;BME280;45734;53.648;9.566;2023-04-03T08:12:05;95171.41;;;-145.06;46.47
59859;BME280;45734;53.648;9.566;2023-04-03T08:17:06;95195.94;;;-145.06;47.31
59859;BME280;45734;53.648;9.566;2023-04-03T08:22:09;95198.00;;;-145.06;45.91
59859;BME280;45734;53.648;9.566;2023-04-03T08:27:10;95198.00;;;-145.06;45.54
59859;BME280;45734;53.648;9.566;2023-04-03T08:32:10;95257.34;;;-145.06;44.95
59859;BME280;45734;53.648;9.566;2023-04-03T08:37:11;95292.13;;;-145.06;46.08
59859;BME280;45734;53.648;9.566;2023-04-03T08:52:45;95226.63;;;-145.06;42.62
59859;BME280;45734;53.648;9.566;2023-04-03T08:57:48;95324.84;;;-145.06;42.93
59859;BME280;45734;53.648;9.566;2023-04-03T09:02:53;95335.09;;;-145.06;41.55
59859;BME280;45734;53.648;9.566;2023-04-03T09:08:37;95355.56;;;-145.06;41.84
59859;BME280;45734;53.648;9.566;2023-04-03T09:24:17;95421.03;;;-145.06;40.49
59859;BME280;45734;53.648;9.566;2023-04-03T09:29:20;95449.69;;;-145.06;42.92
59859;BME280;45734;53.648;9.566;2023-04-03T09:34:31;95504.94;;;-145.06;45.52
59859;BME280;45734;53.648;9.566;2023-04-03T09:39:48;95457.88;;;-145.06;41.73
59859;BME280;45734;53.648;9.566;2023-04-03T09:44:55;95441.50;;;-145.06;41.61
59859;BME280;45734;53.648;9.566;2023-04-03T10:00:22;95715.72;;;-145.06;41.32
59859;BME280;45734;53.648;9.566;2023-04-03T10:10:29;95580.66;;;-145.06;42.10
59859;BME280;45734;53.648;9.566;2023-04-03T10:15:35;95601.09;;;-145.06;42.37
59859;BME280;45734;53.648;9.566;2023-04-03T10:20:43;95660.44;;;-145.06;44.43
59859;BME280;45734;53.648;9.566;2023-04-03T10:26:05;95654.31;;;-145.06;44.75
59859;BME280;45734;53.648;9.566;2023-04-03T10:31:15;96137.28;;;-145.06;44.40
59859;BME280;45734;53.648;9.566;2023-04-03T10:36:41;95642.03;;;-145.06;45.29
59859;BME280;45734;53.648;9.566;2023-04-03T10:42:12;95940.81;;;-145.06;43.17
59859;BME280;45734;53.648;9.566;2023-04-03T10:47:20;95942.88;;;-145.06;45.24
59859;BME280;45734;53.648;9.566;2023-04-03T10:52:44;96049.28;;;-145.06;47.10
59859;BME280;45734;53.648;9.566;2023-04-03T10:57:47;96088.19;;;-145.06;44.80
59859;BME280;45734;53.648;9.566;2023-04-03T11:02:56;95717.75;;;-145.06;47.01
59859;BME280;45734;53.648;9.566;2023-04-03T11:08:03;95711.63;;;-145.06;45.43
59859;BME280;45734;53.648;9.566;2023-04-03T11:13:33;96149.56;;;-145.06;44.51
59859;BME280;45734;53.648;9.566;2023-04-03T11:18:46;96141.38;;;-145.06;46.70
59859;BME280;45734;53.648;9.566;2023-04-03T11:23:51;96053.38;;;-145.06;46.05
59859;BME280;45734;53.648;9.566;2023-04-03T11:28:53;95989.94;;;-145.06;47.10
59859;BME280;45734;53.648;9.566;2023-04-03T11:44:32;95748.44;;;-145.06;48.35
59859;BME280;45734;53.648;9.566;2023-04-03T11:50:03;95824.16;;;-145.06;47.52
59859;BME280;45734;53.648;9.566;2023-04-03T12:32:40;95664.53;;;-145.06;44.02
59859;BME280;45734;53.648;9.566;2023-04-03T12:48:39;96090.22;;;-145.06;47.57
59859;BME280;45734;53.648;9.566;2023-04-03T12:53:46;96092.25;;;-145.06;48.39
59859;BME280;45734;53.648;9.566;2023-04-03T12:58:50;95983.81;;;-145.06;49.78
59859;BME280;45734;53.648;9.566;2023-04-03T13:03:56;95746.41;;;-145.06;47.20
59859;BME280;45734;53.648;9.566;2023-04-03T13:08:59;96008.34;;;-145.06;44.33
59859;BME280;45734;53.648;9.566;2023-04-03T13:14:03;96063.63;;;-145.06;45.05
59859;BME280;45734;53.648;9.566;2023-04-03T13:24:08;95768.91;;;-145.06;47.62
59859;BME280;45734;53.648;9.566;2023-04-03T13:29:29;95723.91;;;-145.06;44.42
59859;BME280;45734;53.648;9.566;2023-04-03T13:34:38;96053.38;;;-145.06;48.57
59859;BME280;45734;53.648;9.566;2023-04-03T13:39:40;96004.25;;;-145.06;44.59
59859;BME280;45734;53.648;9.566;2023-04-03T13:44:41;95994.03;;;-145.06;48.90
59859;BME280;45734;53.648;9.566;2023-04-03T13:49:43;95910.13;;;-145.06;46.14
59859;BME280;45734;53.648;9.566;2023-04-03T13:54:47;95953.09;;;-145.06;47.63
59859;BME280;45734;53.648;9.566;2023-04-03T13:59:47;95996.06;;;-145.06;47.10
59859;BME280;45734;53.648;9.566;2023-04-03T14:04:55;95928.53;;;-145.06;42.98
59859;BME280;45734;53.648;9.566;2023-04-03T14:09:58;95983.81;;;-145.06;45.74
59859;BME280;45734;53.648;9.566;2023-04-03T14:15:06;95989.94;;;-145.06;46.85
59859;BME280;45734;53.648;9.566;2023-04-03T14:20:16;96108.63;;;-145.06;48.31
59859;BME280;45734;53.648;9.566;2023-04-03T14:25:17;96047.25;;;-145.06;48.12
59859;BME280;45734;53.648;9.566;2023-04-03T14:30:26;96192.56;;;-145.06;49.50
59859;BME280;45734;53.648;9.566;2023-04-03T14:35:27;95869.19;;;-145.06;48.74
59859;BME280;45734;53.648;9.566;2023-04-03T14:40:27;95797.56;;;-145.06;45.91
59859;BME280;45734;53.648;9.566;2023-04-03T14:45:28;95883.53;;;-145.06;46.11
59859;BME280;45734;53.648;9.566;2023-04-03T14:50:28;96039.06;;;-145.06;48.23
59859;BME280;45734;53.648;9.566;2023-04-03T14:55:29;96215.06;;;-145.06;47.58
59859;BME280;45734;53.648;9.566;2023-04-03T15:00:29;95994.03;;;-145.06;50.43
59859;BME280;45734;53.648;9.566;2023-04-03T15:05:30;95887.63;;;-145.06;47.37
59859;BME280;45734;53.648;9.566;2023-04-03T15:10:31;95994.03;;;-145.06;45.83
59859;BME280;45734;53.648;9.566;2023-04-03T15:15:32;96092.25;;;-145.06;48.77
59859;BME280;45734;53.648;9.566;2023-04-03T15:20:34;96100.44;;;-145.06;49.89
59859;BME280;45734;53.648;9.566;2023-04-03T15:25:35;96268.28;;;-145.06;50.51
59859;BME280;45734;53.648;9.566;2023-04-03T15:30:37;96231.44;;;-145.06;57.02
59859;BME280;45734;53.648;9.566;2023-04-03T15:35:39;96411.56;;;-145.06;56.34
59859;BME280;45734;53.648;9.566;2023-04-03T15:40:40;96155.72;;;-145.06;51.25
59859;BME280;45734;53.648;9.566;2023-04-03T15:45:42;96059.53;;;-145.06;51.71
59859;BME280;45734;53.648;9.566;2023-04-03T15:50:42;96018.59;;;-145.06;47.79
59859;BME280;45734;53.648;9.566;2023-04-03T15:55:43;96082.03;;;-145.06;49.75
59859;BME280;45734;53.648;9.566;2023-04-03T16:00:43;96208.94;;;-145.06;50.66
59859;BME280;45734;53.648;9.566;2023-04-03T16:05:44;96333.78;;;-145.06;52.32
59859;BME280;45734;53.648;9.566;2023-04-03T16:10:45;97369.56;;;-145.06;53.90
59859;BME280;45734;53.648;9.566;2023-04-03T16:15:47;97238.53;;;-145.06;58.20
59859;BME280;45734;53.648;9.566;2023-04-03T16:20:48;96352.19;;;-145.06;60.34
59859;BME280;45734;53.648;9.566;2023-04-03T16:25:49;96247.81;;;-145.06;53.00
59859;BME280;45734;53.648;9.566;2023-04-03T16:30:50;96231.44;;;-145.06;57.20
59859;BME280;45734;53.648;9.566;2023-04-03T16:35:51;96524.13;;;-145.06;58.27
59859;BME280;45734;53.648;9.566;2023-04-03T16:40:52;96382.91;;;-145.06;59.23
59859;BME280;45734;53.648;9.566;2023-04-03T16:45:57;96468.88;;;-145.06;59.52
59859;BME280;45734;53.648;9.566;2023-04-03T16:50:57;96534.34;;;-145.06;59.34
59859;BME280;45734;53.648;9.566;2023-04-03T16:55:58;96704.25;;;-145.06;59.58
59859;BME280;45734;53.648;9.566;2023-04-03T17:00:58;97207.81;;;-145.06;61.71
59859;BME280;45734;53.648;9.566;2023-04-03T17:05:59;97836.38;;;-145.06;59.46
59859;BME280;45734;53.648;9.566;2023-04-03T17:10:59;97899.84;;;-145.06;63.19
59859;BME280;45734;53.648;9.566;2023-04-03T17:16:01;97994.03;;;-145.06;64.32
59859;BME280;45734;53.648;9.566;2023-04-03T17:21:05;98116.88;;;-145.06;67.26
59859;BME280;45734;53.648;9.566;2023-04-03T17:26:05;98065.69;;;-145.06;71.08
59859;BME280;45734;53.648;9.566;2023-04-03T17:31:06;98153.75;;;-145.06;83.77
59859;BME280;45734;53.648;9.566;2023-04-03T17:36:06;98192.66;;;-145.06;87.50
59859;BME280;45734;53.648;9.566;2023-04-03T17:41:08;98225.41;;;-145.06;91.22
59859;BME280;45734;53.648;9.566;2023-04-03T17:46:09;98323.69;;;-145.06;100.00
59859;BME280;45734;53.648;9.566;2023-04-03T17:51:12;98344.16;;;-145.06;100.00
59859;BME280;45734;53.648;9.566;2023-04-03T17:56:19;98403.56;;;-145.06;100.00
59859;BME280;45734;53.648;9.566;2023-04-03T18:06:26;98385.13;;;-145.06;100.00
59859;BME280;45734;53.648;9.566;2023-04-03T18:11:29;98446.56;;;-145.06;100.00
59859;BME280;45734;53.648;9.566;2023-04-03T18:16:29;98499.81;;;-145.06;100.00
59859;BME280;45734;53.648;9.566;2023-04-03T18:21:30;98524.38;;;-145.06;100.00
59859;BME280;45734;53.648;9.566;2023-04-03T18:26:30;98548.94;;;-145.06;100.00
59859;BME280;45734;53.648;9.566;2023-04-03T18:31:32;98585.81;;;-145.06;100.00
59859;BME280;45734;53.648;9.566;2023-04-03T18:36:34;98602.19;;;-145.06;100.00
59859;BME280;45734;53.648;9.566;2023-04-03T18:41:35;98610.38;;;-145.06;100.00
59859;BME280;45734;53.648;9.566;2023-04-03T18:46:36;98651.34;;;-145.06;100.00
59859;BME280;45734;53.648;9.566;2023-04-03T18:51:37;98651.34;;;-145.06;100.00
59859;BME280;45734;53.648;9.566;2023-04-03T18:56:44;98651.34;;;-145.06;100.00
59859;BME280;45734;53.648;9.566;2023-04-03T19:01:47;98630.88;;;-145.06;100.00
59859;BME280;45734;53.648;9.566;2023-04-03T19:06:47;98643.16;;;-145.06;100.00
59859;BME280;45734;53.648;9.566;2023-04-03T19:11:48;98680.03;;;-145.06;100.00
59859;BME280;45734;53.648;9.566;2023-04-03T19:16:48;98665.69;;;-145.06;100.00
59859;BME280;45734;53.648;9.566;2023-04-03T19:21:50;98702.53;;;-145.06;100.00
59859;BME280;45734;53.648;9.566;2023-04-03T19:26:50;98737.38;;;-145.06;100.00
59859;BME280;45734;53.648;9.566;2023-04-03T19:31:50;98716.88;;;-145.06;100.00
59859;BME280;45734;53.648;9.566;2023-04-03T19:36:51;98757.84;;;-145.06;100.00
59859;BME280;45734;53.648;9.566;2023-04-03T19:41:51;98757.84;;;-145.06;100.00
59859;BME280;45734;53.648;9.566;2023-04-03T19:46:52;98761.94;;;-145.06;100.00
59859;BME280;45734;53.648;9.566;2023-04-03T19:51:52;98780.38;;;-145.06;100.00
59859;BME280;45734;53.648;9.566;2023-04-03T19:56:53;98823.38;;;-145.06;100.00
59859;BME280;45734;53.648;9.566;2023-04-03T20:01:53;98807.00;;;-145.06;100.00
59859;BME280;45734;53.648;9.566;2023-04-03T20:06:53;98807.00;;;-145.06;100.00
59859;BME280;45734;53.648;9.566;2023-04-03T20:11:54;98807.00;;;-145.06;100.00
59859;BME280;45734;53.648;9.566;2023-04-03T20:16:56;98784.47;;;-145.06;100.00
59859;BME280;45734;53.648;9.566;2023-04-03T20:21:59;98743.50;;;-145.06;100.00
59859;BME280;45734;53.648;9.566;2023-04-03T20:26:59;98770.13;;;-145.06;100.00
59859;BME280;45734;53.648;9.566;2023-04-03T20:32:01;98813.13;;;-145.06;100.00
59859;BME280;45734;53.648;9.566;2023-04-03T20:37:01;98741.47;;;-145.06;100.00
59859;BME280;45734;53.648;9.566;2023-04-03T20:42:02;98735.31;;;-145.06;100.00
59859;BME280;45734;53.648;9.566;2023-04-03T20:47:03;98745.56;;;-145.06;100.00
59859;BME280;45734;53.648;9.566;2023-04-03T20:52:03;98780.38;;;-145.06;100.00
59859;BME280;45734;53.648;9.566;2023-04-03T20:57:04;98786.50;;;-145.06;100.00
59859;BME280;45734;53.648;9.566;2023-04-03T21:02:05;98733.25;;;-145.06;100.00
59859;BME280;45734;53.648;9.566;2023-04-03T21:23:53;98804.94;;;-145.06;100.00
59859;BME280;45734;53.648;9.566;2023-04-03T21:28:54;98780.38;;;-145.06;100.00
59859;BME280;45734;53.648;9.566;2023-04-03T21:33:54;98766.03;;;-145.06;100.00
59859;BME280;45734;53.648;9.566;2023-04-03T21:38:55;98823.38;;;-145.06;100.00
59859;BME280;45734;53.648;9.566;2023-04-03T21:43:57;98772.19;;;-145.06;100.00
59859;BME280;45734;53.648;9.566;2023-04-03T21:48:57;98770.13;;;-145.06;100.00
59859;BME280;45734;53.648;9.566;2023-04-03T21:53:57;98827.47;;;-145.06;100.00
59859;BME280;45734;53.648;9.566;2023-04-03T21:58:59;98835.66;;;-145.06;100.00
59859;BME280;45734;53.648;9.566;2023-04-03T22:04:00;98815.19;;;-145.06;100.00
59859;BME280;45734;53.648;9.566;2023-04-03T22:09:02;98817.22;;;-145.06;100.00
59859;BME280;45734;53.648;9.566;2023-04-03T22:14:03;98802.91;;;-145.06;100.00
59859;BME280;45734;53.648;9.566;2023-04-03T22:19:03;98782.41;;;-145.06;100.00
59859;BME280;45734;53.648;9.566;2023-04-03T22:24:03;98815.19;;;-145.06;100.00
59859;BME280;45734;53.648;9.566;2023-04-03T22:29:04;98811.09;;;-145.06;100.00
59859;BME280;45734;53.648;9.566;2023-04-03T22:34:05;98827.47;;;-145.06;100.00
59859;BME280;45734;53.648;9.566;2023-04-03T22:39:05;98827.47;;;-145.06;100.00
59859;BME280;45734;53.648;9.566;2023-04-03T22:44:06;98839.75;;;-145.06;100.00
59859;BME280;45734;53.648;9.566;2023-04-03T22:49:06;98893.00;;;-145.06;100.00
59859;BME280;45734;53.648;9.566;2023-04-03T22:54:06;98897.09;;;-145.06;100.00
59859;BME280;45734;53.648;9.566;2023-04-03T22:59:07;98833.63;;;-145.06;100.00
59859;BME280;45734;53.648;9.566;2023-04-03T23:04:07;98864.34;;;-145.06;100.00
59859;BME280;45734;53.648;9.566;2023-04-03T23:09:07;98856.16;;;-145.06;100.00
59859;BME280;45734;53.648;9.566;2023-04-03T23:14:08;98837.72;;;-145.06;100.00
59859;BME280;45734;53.648;9.566;2023-04-03T23:19:08;98827.47;;;-145.06;100.00
59859;BME280;45734;53.648;9.566;2023-04-03T23:24:08;98813.13;;;-145.06;100.00
59859;BME280;45734;53.648;9.566;2023-04-03T23:29:08;98792.66;;;-145.06;100.00
59859;BME280;45734;53.648;9.566;2023-04-03T23:34:09;98847.94;;;-145.06;100.00
59859;BME280;45734;53.648;9.566;2023-04-03T23:39:09;98782.41;;;-145.06;100.00
59859;BME280;45734;53.648;9.566;2023-04-03T23:44:09;98845.91;;;-145.06;100.00
59859;BME280;45734;53.648;9.566;2023-04-03T23:49:10;98813.13;;;-145.06;100.00
59859;BME280;45734;53.648;9.566;2023-04-03T23:54:10;98780.38;;;-145.06;100.00
59859;BME280;45734;53.648;9.566;2023-04-03T23:59:10;98796.75;;;-145.06;100.00
